sensor_id;sensor_type;location;lat;lon;timestamp;temperature;humidity
14517;DHT22;7344;50.864;4.362;2023-07-24T00:00:14;18.50;99.90
14517;DHT22;7344;50.864;4.362;2023-07-24T00:02:40;18.60;99.90
14517;DHT22;7344;50.864;4.362;2023-07-24T00:05:06;18.60;99.90
14517;DHT22;7344;50.864;4.362;2023-07-24T00:07:32;18.70;99.90
14517;DHT22;7344;50.864;4.362;2023-07-24T00:09:57;18.70;99.90
14517;DHT22;7344;50.864;4.362;2023-07-24T00:12:23;18.80;99.90
14517;DHT22;7344;50.864;4.362;2023-07-24T00:14:48;18.90;99.90
14517;DHT22;7344;50.864;4.362;2023-07-24T00:17:14;19.00;99.90
14517;DHT22;7344;50.864;4.362;2023-07-24T00:19:40;18.90;99.90
14517;DHT22;7344;50.864;4.362;2023-07-24T00:22:05;18.90;99.90
14517;DHT22;7344;50.864;4.362;2023-07-24T00:24:31;19.00;99.90
14517;DHT22;7344;50.864;4.362;2023-07-24T00:26:57;18.80;99.90
14517;DHT22;7344;50.864;4.362;2023-07-24T00:29:23;18.70;99.90
14517;DHT22;7344;50.864;4.362;2023-07-24T00:31:49;18.70;99.90
14517;DHT22;7344;50.864;4.362;2023-07-24T00:34:14;18.70;99.90
14517;DHT22;7344;50.864;4.362;2023-07-24T00:36:40;18.70;99.90
14517;DHT22;7344;50.864;4.362;2023-07-24T00:39:06;18.70;99.90
14517;DHT22;7344;50.864;4.362;2023-07-24T00:41:31;18.70;99.90
14517;DHT22;7344;50.864;4.362;2023-07-24T00:43:57;18.70;99.90
14517;DHT22;7344;50.864;4.362;2023-07-24T00:46:23;18.80;99.90
14517;DHT22;7344;50.864;4.362;2023-07-24T00:48:50;18.80;99.90
14517;DHT22;7344;50.864;4.362;2023-07-24T00:51:16;19.00;99.90
14517;DHT22;7344;50.864;4.362;2023-07-24T00:53:42;18.90;99.90
14517;DHT22;7344;50.864;4.362;2023-07-24T00:56:08;19.00;99.90
14517;DHT22;7344;50.864;4.362;2023-07-24T00:58:37;19.00;99.90
14517;DHT22;7344;50.864;4.362;2023-07-24T01:01:03;19.00;99.90
14517;DHT22;7344;50.864;4.362;2023-07-24T01:03:34;19.00;99.90
14517;DHT22;7344;50.864;4.362;2023-07-24T01:06:03;19.00;99.90
14517;DHT22;7344;50.864;4.362;2023-07-24T01:08:29;19.00;99.90
14517;DHT22;7344;50.864;4.362;2023-07-24T01:10:57;19.00;99.90
14517;DHT22;7344;50.864;4.362;2023-07-24T01:13:28;18.90;99.90
14517;DHT22;7344;50.864;4.362;2023-07-24T01:16:07;18.80;99.90
14517;DHT22;7344;50.864;4.362;2023-07-24T01:18:34;18.80;99.90
14517;DHT22;7344;50.864;4.362;2023-07-24T01:21:05;18.80;99.90
14517;DHT22;7344;50.864;4.362;2023-07-24T01:24:01;18.80;99.90
14517;DHT22;7344;50.864;4.362;2023-07-24T01:26:28;18.80;99.90
14517;DHT22;7344;50.864;4.362;2023-07-24T01:28:54;18.70;99.90
14517;DHT22;7344;50.864;4.362;2023-07-24T01:31:20;18.80;99.90
14517;DHT22;7344;50.864;4.362;2023-07-24T01:33:45;18.80;99.90
14517;DHT22;7344;50.864;4.362;2023-07-24T01:36:13;18.80;99.90
14517;DHT22;7344;50.864;4.362;2023-07-24T01:38:40;18.70;99.90
14517;DHT22;7344;50.864;4.362;2023-07-24T01:41:06;18.70;99.90
14517;DHT22;7344;50.864;4.362;2023-07-24T01:43:32;18.70;99.90
14517;DHT22;7344;50.864;4.362;2023-07-24T01:45:58;18.80;99.90
14517;DHT22;7344;50.864;4.362;2023-07-24T01:48:24;18.70;99.90
14517;DHT22;7344;50.864;4.362;2023-07-24T01:50:50;18.60;99.90
14517;DHT22;7344;50.864;4.362;2023-07-24T01:53:17;18.60;99.90
14517;DHT22;7344;50.864;4.362;2023-07-24T01:55:42;18.60;99.90
14517;DHT22;7344;50.864;4.362;2023-07-24T01:58:08;18.60;99.90
14517;DHT22;7344;50.864;4.362;2023-07-24T02:00:33;18.50;99.90
14517;DHT22;7344;50.864;4.362;2023-07-24T02:02:59;18.50;99.90
14517;DHT22;7344;50.864;4.362;2023-07-24T02:05:25;18.50;99.90
14517;DHT22;7344;50.864;4.362;2023-07-24T02:07:51;18.40;99.90
14517;DHT22;7344;50.864;4.362;2023-07-24T02:10:17;18.40;99.90
14517;DHT22;7344;50.864;4.362;2023-07-24T02:12:42;18.40;99.90
14517;DHT22;7344;50.864;4.362;2023-07-24T02:15:08;18.30;99.90
14517;DHT22;7344;50.864;4.362;2023-07-24T02:17:34;18.30;99.90
14517;DHT22;7344;50.864;4.362;2023-07-24T02:20:00;18.30;99.90
14517;DHT22;7344;50.864;4.362;2023-07-24T02:22:25;18.30;99.90
14517;DHT22;7344;50.864;4.362;2023-07-24T02:24:51;18.30;99.90
14517;DHT22;7344;50.864;4.362;2023-07-24T02:27:27;18.20;99.90
14517;DHT22;7344;50.864;4.362;2023-07-24T02:29:53;18.30;99.90
14517;DHT22;7344;50.864;4.362;2023-07-24T02:32:20;18.30;99.90
14517;DHT22;7344;50.864;4.362;2023-07-24T02:34:50;18.20;99.90
14517;DHT22;7344;50.864;4.362;2023-07-24T02:37:16;18.20;99.90
14517;DHT22;7344;50.864;4.362;2023-07-24T02:39:42;18.20;99.90
14517;DHT22;7344;50.864;4.362;2023-07-24T02:42:08;18.20;99.90
14517;DHT22;7344;50.864;4.362;2023-07-24T02:44:34;18.20;99.90
14517;DHT22;7344;50.864;4.362;2023-07-24T02:47:00;18.30;99.90
14517;DHT22;7344;50.864;4.362;2023-07-24T02:49:25;18.30;99.90
14517;DHT22;7344;50.864;4.362;2023-07-24T02:51:51;18.30;99.90
14517;DHT22;7344;50.864;4.362;2023-07-24T02:54:16;18.20;99.90
14517;DHT22;7344;50.864;4.362;2023-07-24T02:56:42;18.20;99.90
14517;DHT22;7344;50.864;4.362;2023-07-24T02:59:08;18.20;99.90
14517;DHT22;7344;50.864;4.362;2023-07-24T03:01:33;18.10;99.90
14517;DHT22;7344;50.864;4.362;2023-07-24T03:03:59;18.00;99.90
14517;DHT22;7344;50.864;4.362;2023-07-24T03:06:25;18.10;99.90
14517;DHT22;7344;50.864;4.362;2023-07-24T03:08:51;18.00;99.90
14517;DHT22;7344;50.864;4.362;2023-07-24T03:11:16;18.00;99.90
14517;DHT22;7344;50.864;4.362;2023-07-24T03:13:42;17.90;99.90
14517;DHT22;7344;50.864;4.362;2023-07-24T03:16:08;17.90;99.90
14517;DHT22;7344;50.864;4.362;2023-07-24T03:18:34;17.80;99.90
14517;DHT22;7344;50.864;4.362;2023-07-24T03:20:59;17.70;99.90
14517;DHT22;7344;50.864;4.362;2023-07-24T03:23:25;17.60;99.90
14517;DHT22;7344;50.864;4.362;2023-07-24T03:25:51;17.50;99.90
14517;DHT22;7344;50.864;4.362;2023-07-24T03:28:16;17.50;99.90
14517;DHT22;7344;50.864;4.362;2023-07-24T03:30:42;17.50;99.90
14517;DHT22;7344;50.864;4.362;2023-07-24T03:33:07;17.50;99.90
14517;DHT22;7344;50.864;4.362;2023-07-24T03:35:33;17.40;99.90
14517;DHT22;7344;50.864;4.362;2023-07-24T03:37:59;17.40;99.90
14517;DHT22;7344;50.864;4.362;2023-07-24T03:40:25;17.40;99.90
14517;DHT22;7344;50.864;4.362;2023-07-24T03:42:50;17.30;99.90
14517;DHT22;7344;50.864;4.362;2023-07-24T03:45:16;17.30;99.90
14517;DHT22;7344;50.864;4.362;2023-07-24T03:47:42;17.30;99.90
14517;DHT22;7344;50.864;4.362;2023-07-24T03:50:08;17.20;99.90
14517;DHT22;7344;50.864;4.362;2023-07-24T03:52:33;17.20;99.90
14517;DHT22;7344;50.864;4.362;2023-07-24T03:54:59;17.10;99.90
14517;DHT22;7344;50.864;4.362;2023-07-24T03:57:24;17.00;99.90
14517;DHT22;7344;50.864;4.362;2023-07-24T03:59:50;17.10;99.90
14517;DHT22;7344;50.864;4.362;2023-07-24T04:02:16;17.10;99.90
14517;DHT22;7344;50.864;4.362;2023-07-24T04:04:41;17.10;99.90
14517;DHT22;7344;50.864;4.362;2023-07-24T04:07:07;17.20;99.90
14517;DHT22;7344;50.864;4.362;2023-07-24T04:09:32;17.20;99.90
14517;DHT22;7344;50.864;4.362;2023-07-24T04:11:58;17.20;99.90
14517;DHT22;7344;50.864;4.362;2023-07-24T04:14:24;17.20;99.90
14517;DHT22;7344;50.864;4.362;2023-07-24T04:16:49;17.20;99.90
14517;DHT22;7344;50.864;4.362;2023-07-24T04:19:15;17.20;99.90
14517;DHT22;7344;50.864;4.362;2023-07-24T04:21:40;17.30;99.90
14517;DHT22;7344;50.864;4.362;2023-07-24T04:24:06;17.30;99.90
14517;DHT22;7344;50.864;4.362;2023-07-24T04:26:32;17.30;99.90
14517;DHT22;7344;50.864;4.362;2023-07-24T04:28:57;17.30;99.90
14517;DHT22;7344;50.864;4.362;2023-07-24T04:31:23;17.40;99.90
14517;DHT22;7344;50.864;4.362;2023-07-24T04:33:49;17.40;99.90
14517;DHT22;7344;50.864;4.362;2023-07-24T04:36:14;17.40;99.90
14517;DHT22;7344;50.864;4.362;2023-07-24T04:38:40;17.40;99.90
14517;DHT22;7344;50.864;4.362;2023-07-24T04:41:05;17.40;99.90
14517;DHT22;7344;50.864;4.362;2023-07-24T04:43:31;17.40;99.90
14517;DHT22;7344;50.864;4.362;2023-07-24T04:45:57;17.40;99.90
14517;DHT22;7344;50.864;4.362;2023-07-24T04:48:22;17.40;99.90
14517;DHT22;7344;50.864;4.362;2023-07-24T04:50:53;17.50;99.90
14517;DHT22;7344;50.864;4.362;2023-07-24T04:53:20;17.50;99.90
14517;DHT22;7344;50.864;4.362;2023-07-24T04:55:46;17.60;99.90
14517;DHT22;7344;50.864;4.362;2023-07-24T04:58:11;17.60;99.90
14517;DHT22;7344;50.864;4.362;2023-07-24T05:00:37;17.70;99.90
14517;DHT22;7344;50.864;4.362;2023-07-24T05:03:03;17.70;99.90
14517;DHT22;7344;50.864;4.362;2023-07-24T05:05:28;17.60;99.90
14517;DHT22;7344;50.864;4.362;2023-07-24T05:07:54;17.50;99.90
14517;DHT22;7344;50.864;4.362;2023-07-24T05:10:19;17.50;99.90
14517;DHT22;7344;50.864;4.362;2023-07-24T05:12:45;17.50;99.90
14517;DHT22;7344;50.864;4.362;2023-07-24T05:15:11;17.50;99.90
14517;DHT22;7344;50.864;4.362;2023-07-24T05:17:37;17.50;99.90
14517;DHT22;7344;50.864;4.362;2023-07-24T05:20:03;17.50;99.90
14517;DHT22;7344;50.864;4.362;2023-07-24T05:22:28;17.50;99.90
14517;DHT22;7344;50.864;4.362;2023-07-24T05:24:54;17.50;99.90
14517;DHT22;7344;50.864;4.362;2023-07-24T05:27:19;17.60;99.90
14517;DHT22;7344;50.864;4.362;2023-07-24T05:29:45;17.70;99.90
14517;DHT22;7344;50.864;4.362;2023-07-24T05:32:11;17.80;99.90
14517;DHT22;7344;50.864;4.362;2023-07-24T05:34:36;17.90;99.90
14517;DHT22;7344;50.864;4.362;2023-07-24T05:37:02;18.10;99.90
14517;DHT22;7344;50.864;4.362;2023-07-24T05:39:29;18.40;99.90
14517;DHT22;7344;50.864;4.362;2023-07-24T05:41:55;18.70;99.90
14517;DHT22;7344;50.864;4.362;2023-07-24T05:44:21;19.10;99.90
14517;DHT22;7344;50.864;4.362;2023-07-24T05:46:46;19.20;99.90
14517;DHT22;7344;50.864;4.362;2023-07-24T05:49:12;19.20;99.90
14517;DHT22;7344;50.864;4.362;2023-07-24T05:51:37;19.00;99.90
14517;DHT22;7344;50.864;4.362;2023-07-24T05:54:03;18.80;99.90
14517;DHT22;7344;50.864;4.362;2023-07-24T05:56:28;18.70;99.90
14517;DHT22;7344;50.864;4.362;2023-07-24T05:58:54;18.70;99.90
14517;DHT22;7344;50.864;4.362;2023-07-24T06:01:19;18.90;99.90
14517;DHT22;7344;50.864;4.362;2023-07-24T06:03:45;18.90;99.90
14517;DHT22;7344;50.864;4.362;2023-07-24T06:06:11;18.80;99.90
14517;DHT22;7344;50.864;4.362;2023-07-24T06:08:36;18.90;99.90
14517;DHT22;7344;50.864;4.362;2023-07-24T06:11:02;19.10;99.90
14517;DHT22;7344;50.864;4.362;2023-07-24T06:13:27;19.20;99.90
14517;DHT22;7344;50.864;4.362;2023-07-24T06:15:53;19.30;99.90
14517;DHT22;7344;50.864;4.362;2023-07-24T06:18:18;19.20;99.90
14517;DHT22;7344;50.864;4.362;2023-07-24T06:20:44;19.10;99.90
14517;DHT22;7344;50.864;4.362;2023-07-24T06:23:10;19.10;99.90
14517;DHT22;7344;50.864;4.362;2023-07-24T06:25:35;19.10;99.90
14517;DHT22;7344;50.864;4.362;2023-07-24T06:28:01;19.40;99.90
14517;DHT22;7344;50.864;4.362;2023-07-24T06:30:27;20.10;99.90
14517;DHT22;7344;50.864;4.362;2023-07-24T06:32:52;20.50;99.90
14517;DHT22;7344;50.864;4.362;2023-07-24T06:35:18;20.80;99.90
14517;DHT22;7344;50.864;4.362;2023-07-24T06:37:43;20.20;99.90
14517;DHT22;7344;50.864;4.362;2023-07-24T06:40:10;20.10;99.90
14517;DHT22;7344;50.864;4.362;2023-07-24T06:42:36;20.20;99.90
14517;DHT22;7344;50.864;4.362;2023-07-24T06:45:02;20.30;99.90
14517;DHT22;7344;50.864;4.362;2023-07-24T06:47:27;20.40;99.90
14517;DHT22;7344;50.864;4.362;2023-07-24T06:49:53;20.70;99.90
14517;DHT22;7344;50.864;4.362;2023-07-24T06:52:19;21.50;81.00
14517;DHT22;7344;50.864;4.362;2023-07-24T06:54:44;23.30;25.70
14517;DHT22;7344;50.864;4.362;2023-07-24T06:57:10;23.40;10.50
14517;DHT22;7344;50.864;4.362;2023-07-24T06:59:35;23.80;1.00
14517;DHT22;7344;50.864;4.362;2023-07-24T07:02:01;23.50;2.90
14517;DHT22;7344;50.864;4.362;2023-07-24T07:04:27;23.10;10.80
14517;DHT22;7344;50.864;4.362;2023-07-24T07:06:52;23.20;10.90
14517;DHT22;7344;50.864;4.362;2023-07-24T07:09:18;23.00;20.30
14517;DHT22;7344;50.864;4.362;2023-07-24T07:11:43;22.70;27.70
14517;DHT22;7344;50.864;4.362;2023-07-24T07:14:10;22.20;37.60
14517;DHT22;7344;50.864;4.362;2023-07-24T07:16:35;21.90;44.60
14517;DHT22;7344;50.864;4.362;2023-07-24T07:19:01;21.60;53.90
14517;DHT22;7344;50.864;4.362;2023-07-24T07:21:27;21.70;59.00
14517;DHT22;7344;50.864;4.362;2023-07-24T07:23:52;21.60;55.70
14517;DHT22;7344;50.864;4.362;2023-07-24T07:26:18;21.50;51.10
14517;DHT22;7344;50.864;4.362;2023-07-24T07:28:44;21.20;62.10
14517;DHT22;7344;50.864;4.362;2023-07-24T07:31:12;21.00;68.70
14517;DHT22;7344;50.864;4.362;2023-07-24T07:33:38;20.80;83.50
14517;DHT22;7344;50.864;4.362;2023-07-24T07:36:04;20.80;90.90
14517;DHT22;7344;50.864;4.362;2023-07-24T07:38:31;21.00;83.10
14517;DHT22;7344;50.864;4.362;2023-07-24T07:40:56;21.00;84.30
14517;DHT22;7344;50.864;4.362;2023-07-24T07:43:22;21.40;72.40
14517;DHT22;7344;50.864;4.362;2023-07-24T07:45:48;21.60;58.50
14517;DHT22;7344;50.864;4.362;2023-07-24T07:48:13;21.90;38.90
14517;DHT22;7344;50.864;4.362;2023-07-24T07:50:39;21.90;39.90
14517;DHT22;7344;50.864;4.362;2023-07-24T07:53:04;21.40;43.80
14517;DHT22;7344;50.864;4.362;2023-07-24T07:55:30;21.50;48.70
14517;DHT22;7344;50.864;4.362;2023-07-24T07:57:56;21.40;56.00
14517;DHT22;7344;50.864;4.362;2023-07-24T08:00:21;21.60;50.40
14517;DHT22;7344;50.864;4.362;2023-07-24T08:02:48;22.00;43.70
14517;DHT22;7344;50.864;4.362;2023-07-24T08:05:13;22.50;30.10
14517;DHT22;7344;50.864;4.362;2023-07-24T08:07:39;22.70;12.70
14517;DHT22;7344;50.864;4.362;2023-07-24T08:10:05;22.70;9.20
14517;DHT22;7344;50.864;4.362;2023-07-24T08:12:32;22.30;8.70
14517;DHT22;7344;50.864;4.362;2023-07-24T08:14:57;21.90;25.90
14517;DHT22;7344;50.864;4.362;2023-07-24T08:17:23;21.70;29.10
14517;DHT22;7344;50.864;4.362;2023-07-24T08:19:49;21.40;37.70
14517;DHT22;7344;50.864;4.362;2023-07-24T08:22:14;21.40;46.00
14517;DHT22;7344;50.864;4.362;2023-07-24T08:24:40;21.00;51.10
14517;DHT22;7344;50.864;4.362;2023-07-24T08:27:05;20.80;57.60
14517;DHT22;7344;50.864;4.362;2023-07-24T08:29:31;20.60;57.40
14517;DHT22;7344;50.864;4.362;2023-07-24T08:31:57;20.60;66.30
14517;DHT22;7344;50.864;4.362;2023-07-24T08:34:22;20.40;67.20
14517;DHT22;7344;50.864;4.362;2023-07-24T08:36:48;20.40;81.20
14517;DHT22;7344;50.864;4.362;2023-07-24T08:39:14;20.30;84.60
14517;DHT22;7344;50.864;4.362;2023-07-24T08:41:39;20.50;91.90
14517;DHT22;7344;50.864;4.362;2023-07-24T08:44:07;20.50;90.40
14517;DHT22;7344;50.864;4.362;2023-07-24T08:46:39;20.80;86.00
14517;DHT22;7344;50.864;4.362;2023-07-24T08:49:10;20.90;73.70
14517;DHT22;7344;50.864;4.362;2023-07-24T08:51:37;20.50;59.10
14517;DHT22;7344;50.864;4.362;2023-07-24T08:54:04;20.20;78.40
14517;DHT22;7344;50.864;4.362;2023-07-24T08:56:31;20.00;90.80
14517;DHT22;7344;50.864;4.362;2023-07-24T08:58:56;19.70;97.00
14517;DHT22;7344;50.864;4.362;2023-07-24T09:01:22;19.70;99.90
14517;DHT22;7344;50.864;4.362;2023-07-24T09:03:48;19.40;97.80
14517;DHT22;7344;50.864;4.362;2023-07-24T09:06:13;19.40;99.90
14517;DHT22;7344;50.864;4.362;2023-07-24T09:08:43;19.20;99.90
14517;DHT22;7344;50.864;4.362;2023-07-24T09:11:10;19.20;99.90
14517;DHT22;7344;50.864;4.362;2023-07-24T09:13:42;19.30;99.90
14517;DHT22;7344;50.864;4.362;2023-07-24T09:16:08;19.20;98.50
14517;DHT22;7344;50.864;4.362;2023-07-24T09:18:43;19.10;99.90
14517;DHT22;7344;50.864;4.362;2023-07-24T09:21:09;19.10;99.90
14517;DHT22;7344;50.864;4.362;2023-07-24T09:23:37;19.00;99.90
14517;DHT22;7344;50.864;4.362;2023-07-24T09:26:07;19.00;99.90
14517;DHT22;7344;50.864;4.362;2023-07-24T09:28:33;19.00;99.90
14517;DHT22;7344;50.864;4.362;2023-07-24T09:30:59;19.30;99.90
14517;DHT22;7344;50.864;4.362;2023-07-24T09:33:41;19.50;99.90
14517;DHT22;7344;50.864;4.362;2023-07-24T09:36:08;19.70;99.90
14517;DHT22;7344;50.864;4.362;2023-07-24T09:38:35;19.70;99.90
14517;DHT22;7344;50.864;4.362;2023-07-24T09:41:04;19.70;99.90
14517;DHT22;7344;50.864;4.362;2023-07-24T09:43:31;19.70;97.90
14517;DHT22;7344;50.864;4.362;2023-07-24T09:45:57;19.60;90.80
14517;DHT22;7344;50.864;4.362;2023-07-24T09:48:25;19.70;99.90
14517;DHT22;7344;50.864;4.362;2023-07-24T09:50:56;19.80;99.90
14517;DHT22;7344;50.864;4.362;2023-07-24T09:53:43;19.60;99.90
14517;DHT22;7344;50.864;4.362;2023-07-24T09:56:13;19.40;99.90
14517;DHT22;7344;50.864;4.362;2023-07-24T09:58:40;18.80;99.90
14517;DHT22;7344;50.864;4.362;2023-07-24T10:01:09;18.70;99.90
14517;DHT22;7344;50.864;4.362;2023-07-24T10:03:40;18.70;99.90
14517;DHT22;7344;50.864;4.362;2023-07-24T10:06:06;18.80;99.90
14517;DHT22;7344;50.864;4.362;2023-07-24T10:08:36;18.90;99.90
14517;DHT22;7344;50.864;4.362;2023-07-24T10:11:02;18.80;99.90
14517;DHT22;7344;50.864;4.362;2023-07-24T10:13:28;19.00;99.90
14517;DHT22;7344;50.864;4.362;2023-07-24T10:15:55;19.10;99.90
14517;DHT22;7344;50.864;4.362;2023-07-24T10:18:27;19.40;99.90
14517;DHT22;7344;50.864;4.362;2023-07-24T10:21:06;19.70;99.90
14517;DHT22;7344;50.864;4.362;2023-07-24T10:23:43;20.30;99.90
14517;DHT22;7344;50.864;4.362;2023-07-24T10:26:10;20.80;99.90
14517;DHT22;7344;50.864;4.362;2023-07-24T10:28:37;21.00;87.20
14517;DHT22;7344;50.864;4.362;2023-07-24T10:31:23;21.50;63.30
14517;DHT22;7344;50.864;4.362;2023-07-24T10:33:49;22.10;52.80
14517;DHT22;7344;50.864;4.362;2023-07-24T10:36:20;22.30;36.00
14517;DHT22;7344;50.864;4.362;2023-07-24T10:38:51;22.60;36.00
14517;DHT22;7344;50.864;4.362;2023-07-24T10:41:17;23.60;14.60
14517;DHT22;7344;50.864;4.362;2023-07-24T10:43:50;24.70;1.00
14517;DHT22;7344;50.864;4.362;2023-07-24T10:46:18;25.10;1.00
14517;DHT22;7344;50.864;4.362;2023-07-24T10:48:49;25.30;1.00
14517;DHT22;7344;50.864;4.362;2023-07-24T10:51:15;25.70;1.00
14517;DHT22;7344;50.864;4.362;2023-07-24T10:53:46;25.80;1.00
14517;DHT22;7344;50.864;4.362;2023-07-24T10:56:12;25.90;1.00
14517;DHT22;7344;50.864;4.362;2023-07-24T10:58:38;26.20;1.00
14517;DHT22;7344;50.864;4.362;2023-07-24T11:01:04;25.60;1.00
14517;DHT22;7344;50.864;4.362;2023-07-24T11:03:30;24.80;1.00
14517;DHT22;7344;50.864;4.362;2023-07-24T11:05:58;24.10;1.00
14517;DHT22;7344;50.864;4.362;2023-07-24T11:08:24;23.70;9.50
14517;DHT22;7344;50.864;4.362;2023-07-24T11:10:51;23.70;1.00
14517;DHT22;7344;50.864;4.362;2023-07-24T11:13:18;23.80;17.40
14517;DHT22;7344;50.864;4.362;2023-07-24T11:15:44;23.70;1.00
14517;DHT22;7344;50.864;4.362;2023-07-24T11:18:10;23.20;7.60
14517;DHT22;7344;50.864;4.362;2023-07-24T11:20:45;23.20;9.10
14517;DHT22;7344;50.864;4.362;2023-07-24T11:23:12;23.60;9.70
14517;DHT22;7344;50.864;4.362;2023-07-24T11:25:38;23.70;1.00
14517;DHT22;7344;50.864;4.362;2023-07-24T11:28:08;23.10;1.80
14517;DHT22;7344;50.864;4.362;2023-07-24T11:30:34;23.20;12.40
14517;DHT22;7344;50.864;4.362;2023-07-24T11:33:07;23.20;10.60
14517;DHT22;7344;50.864;4.362;2023-07-24T11:35:34;23.90;11.50
14517;DHT22;7344;50.864;4.362;2023-07-24T11:38:01;24.40;1.00
14517;DHT22;7344;50.864;4.362;2023-07-24T11:40:34;25.00;1.00
14517;DHT22;7344;50.864;4.362;2023-07-24T11:43:00;25.50;1.00
14517;DHT22;7344;50.864;4.362;2023-07-24T11:45:26;25.20;1.00
14517;DHT22;7344;50.864;4.362;2023-07-24T11:47:52;25.60;1.00
14517;DHT22;7344;50.864;4.362;2023-07-24T11:50:22;25.70;1.00
14517;DHT22;7344;50.864;4.362;2023-07-24T11:52:50;25.70;1.00
14517;DHT22;7344;50.864;4.362;2023-07-24T11:55:29;25.90;1.00
14517;DHT22;7344;50.864;4.362;2023-07-24T11:58:00;26.40;1.00
14517;DHT22;7344;50.864;4.362;2023-07-24T12:00:26;26.20;1.00
14517;DHT22;7344;50.864;4.362;2023-07-24T12:02:53;26.20;1.00
14517;DHT22;7344;50.864;4.362;2023-07-24T12:05:18;25.80;1.00
14517;DHT22;7344;50.864;4.362;2023-07-24T12:07:45;25.90;1.00
14517;DHT22;7344;50.864;4.362;2023-07-24T12:10:12;25.80;1.00
14517;DHT22;7344;50.864;4.362;2023-07-24T12:12:45;25.80;1.00
14517;DHT22;7344;50.864;4.362;2023-07-24T12:15:12;25.70;1.00
14517;DHT22;7344;50.864;4.362;2023-07-24T12:17:38;25.70;1.00
14517;DHT22;7344;50.864;4.362;2023-07-24T12:20:04;25.40;1.00
14517;DHT22;7344;50.864;4.362;2023-07-24T12:22:32;25.00;1.00
14517;DHT22;7344;50.864;4.362;2023-07-24T12:24:57;24.60;1.00
14517;DHT22;7344;50.864;4.362;2023-07-24T12:27:24;24.80;1.00
14517;DHT22;7344;50.864;4.362;2023-07-24T12:29:51;24.50;1.00
14517;DHT22;7344;50.864;4.362;2023-07-24T12:32:16;24.20;1.00
14517;DHT22;7344;50.864;4.362;2023-07-24T12:34:42;23.70;1.00
14517;DHT22;7344;50.864;4.362;2023-07-24T12:37:07;23.70;1.00
14517;DHT22;7344;50.864;4.362;2023-07-24T12:39:33;23.60;1.00
14517;DHT22;7344;50.864;4.362;2023-07-24T12:41:58;23.30;1.00
14517;DHT22;7344;50.864;4.362;2023-07-24T12:44:24;22.90;1.00
14517;DHT22;7344;50.864;4.362;2023-07-24T12:46:51;23.10;1.00
14517;DHT22;7344;50.864;4.362;2023-07-24T12:49:17;23.30;1.00
14517;DHT22;7344;50.864;4.362;2023-07-24T12:51:42;23.50;1.00
14517;DHT22;7344;50.864;4.362;2023-07-24T12:54:08;23.80;1.00
14517;DHT22;7344;50.864;4.362;2023-07-24T12:56:33;23.90;1.00
14517;DHT22;7344;50.864;4.362;2023-07-24T12:58:59;23.80;1.00
14517;DHT22;7344;50.864;4.362;2023-07-24T13:01:24;24.20;1.00
14517;DHT22;7344;50.864;4.362;2023-07-24T13:03:52;23.90;1.00
14517;DHT22;7344;50.864;4.362;2023-07-24T13:06:18;23.90;1.00
14517;DHT22;7344;50.864;4.362;2023-07-24T13:08:43;24.20;1.00
14517;DHT22;7344;50.864;4.362;2023-07-24T13:11:09;24.40;1.00
14517;DHT22;7344;50.864;4.362;2023-07-24T13:13:34;24.10;1.00
14517;DHT22;7344;50.864;4.362;2023-07-24T13:16:02;23.80;1.00
14517;DHT22;7344;50.864;4.362;2023-07-24T13:18:28;23.50;1.00
14517;DHT22;7344;50.864;4.362;2023-07-24T13:20:54;23.60;1.00
14517;DHT22;7344;50.864;4.362;2023-07-24T13:23:20;23.90;1.00
14517;DHT22;7344;50.864;4.362;2023-07-24T13:25:45;24.50;1.00
14517;DHT22;7344;50.864;4.362;2023-07-24T13:28:11;24.60;1.00
14517;DHT22;7344;50.864;4.362;2023-07-24T13:30:37;24.30;1.00
14517;DHT22;7344;50.864;4.362;2023-07-24T13:33:02;24.20;1.00
14517;DHT22;7344;50.864;4.362;2023-07-24T13:35:28;24.10;1.00
14517;DHT22;7344;50.864;4.362;2023-07-24T13:37:53;24.20;1.00
14517;DHT22;7344;50.864;4.362;2023-07-24T13:40:19;23.80;1.00
14517;DHT22;7344;50.864;4.362;2023-07-24T13:42:44;24.10;1.00
14517;DHT22;7344;50.864;4.362;2023-07-24T13:45:10;23.70;1.00
14517;DHT22;7344;50.864;4.362;2023-07-24T13:47:36;23.70;1.00
14517;DHT22;7344;50.864;4.362;2023-07-24T13:50:01;23.60;1.00
14517;DHT22;7344;50.864;4.362;2023-07-24T13:52:29;23.60;1.00
14517;DHT22;7344;50.864;4.362;2023-07-24T13:54:55;23.50;1.00
14517;DHT22;7344;50.864;4.362;2023-07-24T13:57:20;23.60;1.00
14517;DHT22;7344;50.864;4.362;2023-07-24T13:59:47;23.40;1.00
14517;DHT22;7344;50.864;4.362;2023-07-24T14:02:12;23.20;1.00
14517;DHT22;7344;50.864;4.362;2023-07-24T14:04:38;23.20;1.00
14517;DHT22;7344;50.864;4.362;2023-07-24T14:07:04;23.20;1.00
14517;DHT22;7344;50.864;4.362;2023-07-24T14:09:29;23.20;1.00
14517;DHT22;7344;50.864;4.362;2023-07-24T14:11:56;23.60;1.00
14517;DHT22;7344;50.864;4.362;2023-07-24T14:14:23;23.70;1.00
14517;DHT22;7344;50.864;4.362;2023-07-24T14:16:50;23.60;1.00
14517;DHT22;7344;50.864;4.362;2023-07-24T14:19:16;23.60;1.00
14517;DHT22;7344;50.864;4.362;2023-07-24T14:21:41;23.70;1.00
14517;DHT22;7344;50.864;4.362;2023-07-24T14:24:07;23.60;1.00
14517;DHT22;7344;50.864;4.362;2023-07-24T14:26:33;23.50;1.00
14517;DHT22;7344;50.864;4.362;2023-07-24T14:28:58;23.50;1.00
14517;DHT22;7344;50.864;4.362;2023-07-24T14:31:24;23.60;1.00
14517;DHT22;7344;50.864;4.362;2023-07-24T14:33:50;23.20;1.00
14517;DHT22;7344;50.864;4.362;2023-07-24T14:36:15;23.10;1.00
14517;DHT22;7344;50.864;4.362;2023-07-24T14:38:41;23.00;1.00
14517;DHT22;7344;50.864;4.362;2023-07-24T14:41:07;23.30;1.00
14517;DHT22;7344;50.864;4.362;2023-07-24T14:43:32;23.20;1.00
14517;DHT22;7344;50.864;4.362;2023-07-24T14:45:58;23.10;1.00
14517;DHT22;7344;50.864;4.362;2023-07-24T14:48:24;22.70;1.00
14517;DHT22;7344;50.864;4.362;2023-07-24T14:50:49;22.20;1.00
14517;DHT22;7344;50.864;4.362;2023-07-24T14:53:15;21.70;1.00
14517;DHT22;7344;50.864;4.362;2023-07-24T14:55:40;21.30;1.00
14517;DHT22;7344;50.864;4.362;2023-07-24T14:58:06;21.10;1.00
14517;DHT22;7344;50.864;4.362;2023-07-24T15:00:32;20.90;1.00
14517;DHT22;7344;50.864;4.362;2023-07-24T15:02:58;20.90;1.00
14517;DHT22;7344;50.864;4.362;2023-07-24T15:05:23;20.80;2.50
14517;DHT22;7344;50.864;4.362;2023-07-24T15:07:49;20.50;30.30
14517;DHT22;7344;50.864;4.362;2023-07-24T15:10:15;19.80;67.40
14517;DHT22;7344;50.864;4.362;2023-07-24T15:12:41;19.30;99.20
14517;DHT22;7344;50.864;4.362;2023-07-24T15:15:06;18.80;99.90
14517;DHT22;7344;50.864;4.362;2023-07-24T15:17:32;18.60;99.90
14517;DHT22;7344;50.864;4.362;2023-07-24T15:19:58;18.40;99.90
14517;DHT22;7344;50.864;4.362;2023-07-24T15:22:23;18.30;99.90
14517;DHT22;7344;50.864;4.362;2023-07-24T15:24:49;18.00;99.90
14517;DHT22;7344;50.864;4.362;2023-07-24T15:27:15;18.10;99.90
14517;DHT22;7344;50.864;4.362;2023-07-24T15:29:40;18.30;99.90
14517;DHT22;7344;50.864;4.362;2023-07-24T15:32:06;18.30;99.90
14517;DHT22;7344;50.864;4.362;2023-07-24T15:34:32;18.30;99.90
14517;DHT22;7344;50.864;4.362;2023-07-24T15:36:58;18.20;99.90
14517;DHT22;7344;50.864;4.362;2023-07-24T15:39:24;18.30;99.90
14517;DHT22;7344;50.864;4.362;2023-07-24T15:41:50;18.40;99.90
14517;DHT22;7344;50.864;4.362;2023-07-24T15:44:15;18.60;99.90